INFORMACIÓN METAR y TAF
METAR FOR LIPE
ADDS - METARS form results

(0414 UTC 14 August 2020)
Data provider http://aviationweather.gov/metar/data/
 
METAR text: LIPE 140350Z 23003KT 200V290 CAVOK 22/16 Q1012
Conditions at: LIPE (BOLOGNA/BORGO (A, IT) observed 0350 UTC 14 August 2020
Temperature: 22.0°C (72°F)
Dewpoint: 16.0°C (61°F) [RH = 69%]
Pressure (altimeter): 29.88 inches Hg (1012.0 mb)
Winds: from the SW (230 degrees) at 3 MPH (3 knots; 1.5 m/s)
Visibility: 6 or more miles (10+ km)
Ceiling: ceiling and visibility are OK
Clouds: unknown
Weather: no significant weather observed at this time

METAR text: LIPE 140320Z 20005KT CAVOK 22/16 Q1012
Conditions at: LIPE (BOLOGNA/BORGO (A, IT) observed 0320 UTC 14 August 2020
Temperature: 22.0°C (72°F)
Dewpoint: 16.0°C (61°F) [RH = 69%]
Pressure (altimeter): 29.88 inches Hg (1012.0 mb)
Winds: from the SSW (200 degrees) at 6 MPH (5 knots; 2.6 m/s)
Visibility: 6 or more miles (10+ km)
Ceiling: ceiling and visibility are OK
Clouds: unknown
Weather: no significant weather observed at this time

Forecast for: LIPE (BOLOGNA/BORGO (A, IT)
Text: TAF LIPE 132300Z 1400/1424 VRB05KT 9999 FEW040
Forecast period: 0000 UTC 14 August 2020 to 0000 UTC 15 August 2020
Forecast type: FROM: standard forecast or significant change
Winds: variable direction winds at 6 MPH (5 knots; 2.6 m/s)
Visibility: 6 or more miles (10+ km)
Ceiling: at least 12,000 feet AGL
Clouds: few clouds at 4000 feet AGL
Weather: no significant weather forecast for this period

 MAPA DE AEROPUERTO

 INFORMACIÓN DE PISTA
Pista 12 Longitud 9186 ft Ancho 150 ft
Elevación 120 ft Umbral desplazado 1007 ft Rumbo de pista 117
Pista 30 Longitud 9186 ft Ancho 150 ft
Elevación 120 ft Umbral desplazado 1188 ft Rumbo de pista 297

 FRECUANCIAS DEL AEROPUERTO
Tipo APP Nombre APP Frecuencia 120.1 MHZ
Tipo ATIS Nombre ATIS Frecuencia 134.875 MHZ
Tipo GND Nombre GND Frecuencia 129.925 MHZ
Tipo TWR Nombre TWR Frecuencia 120.8 MHZ

 RADIO AYUDAS DEL AEROPUERTO
Tipo VOR-DME Nombre Bologna Frecuencia 112200 KHZ
Tipo NDB Nombre Bologna Frecuencia 413 KHZ



Powered by Virtual Airlines Manager [v2.6.2]